sensor_id;sensor_type;location;lat;lon;timestamp;temperature;humidity
79760;DHT22;70512;42.122;24.732;2023-12-14T00:00:18;6.10;91.30
79760;DHT22;70512;42.122;24.732;2023-12-14T00:02:45;6.10;91.30
79760;DHT22;70512;42.122;24.732;2023-12-14T00:05:12;6.20;91.10
79760;DHT22;70512;42.122;24.732;2023-12-14T00:07:39;6.20;91.40
79760;DHT22;70512;42.122;24.732;2023-12-14T00:10:06;6.20;91.10
79760;DHT22;70512;42.122;24.732;2023-12-14T00:12:33;6.20;91.00
79760;DHT22;70512;42.122;24.732;2023-12-14T00:15:00;6.20;91.10
79760;DHT22;70512;42.122;24.732;2023-12-14T00:17:27;6.10;91.20
79760;DHT22;70512;42.122;24.732;2023-12-14T00:19:55;6.10;91.20
79760;DHT22;70512;42.122;24.732;2023-12-14T00:22:22;6.20;91.20
79760;DHT22;70512;42.122;24.732;2023-12-14T00:24:50;6.20;91.20
79760;DHT22;70512;42.122;24.732;2023-12-14T00:27:17;6.20;91.20
79760;DHT22;70512;42.122;24.732;2023-12-14T00:29:44;6.20;91.10
79760;DHT22;70512;42.122;24.732;2023-12-14T00:32:11;6.10;91.00
79760;DHT22;70512;42.122;24.732;2023-12-14T00:34:37;6.10;91.10
79760;DHT22;70512;42.122;24.732;2023-12-14T00:37:04;6.10;91.10
79760;DHT22;70512;42.122;24.732;2023-12-14T00:39:31;6.00;91.20
79760;DHT22;70512;42.122;24.732;2023-12-14T00:41:58;6.00;91.30
79760;DHT22;70512;42.122;24.732;2023-12-14T00:44:25;6.00;91.30
79760;DHT22;70512;42.122;24.732;2023-12-14T00:46:52;6.00;91.40
79760;DHT22;70512;42.122;24.732;2023-12-14T00:49:19;6.00;91.70
79760;DHT22;70512;42.122;24.732;2023-12-14T00:51:45;6.00;91.50
79760;DHT22;70512;42.122;24.732;2023-12-14T00:54:12;5.90;91.50
79760;DHT22;70512;42.122;24.732;2023-12-14T00:56:39;5.80;91.70
79760;DHT22;70512;42.122;24.732;2023-12-14T00:59:06;5.60;91.90
79760;DHT22;70512;42.122;24.732;2023-12-14T01:01:33;5.60;91.90
79760;DHT22;70512;42.122;24.732;2023-12-14T01:04:02;5.70;91.80
79760;DHT22;70512;42.122;24.732;2023-12-14T01:06:30;5.60;92.00
79760;DHT22;70512;42.122;24.732;2023-12-14T01:08:57;5.60;92.10
79760;DHT22;70512;42.122;24.732;2023-12-14T01:11:25;5.60;92.00
79760;DHT22;70512;42.122;24.732;2023-12-14T01:13:52;5.70;92.00
79760;DHT22;70512;42.122;24.732;2023-12-14T01:16:19;5.70;91.90
79760;DHT22;70512;42.122;24.732;2023-12-14T01:18:46;5.70;91.80
79760;DHT22;70512;42.122;24.732;2023-12-14T01:21:13;5.80;91.60
79760;DHT22;70512;42.122;24.732;2023-12-14T01:23:40;5.80;91.60
79760;DHT22;70512;42.122;24.732;2023-12-14T01:26:07;5.80;91.60
79760;DHT22;70512;42.122;24.732;2023-12-14T01:28:33;5.80;91.50
79760;DHT22;70512;42.122;24.732;2023-12-14T01:31:00;5.90;91.50
79760;DHT22;70512;42.122;24.732;2023-12-14T01:33:27;5.90;91.50
79760;DHT22;70512;42.122;24.732;2023-12-14T01:35:54;5.90;91.30
79760;DHT22;70512;42.122;24.732;2023-12-14T01:38:21;5.90;91.20
79760;DHT22;70512;42.122;24.732;2023-12-14T01:40:48;5.80;91.50
79760;DHT22;70512;42.122;24.732;2023-12-14T01:43:20;5.80;91.60
79760;DHT22;70512;42.122;24.732;2023-12-14T01:45:43;5.70;91.60
79760;DHT22;70512;42.122;24.732;2023-12-14T01:48:13;5.60;91.90
79760;DHT22;70512;42.122;24.732;2023-12-14T01:50:40;5.70;91.80
79760;DHT22;70512;42.122;24.732;2023-12-14T01:53:07;5.70;91.80
79760;DHT22;70512;42.122;24.732;2023-12-14T01:55:34;5.80;91.70
79760;DHT22;70512;42.122;24.732;2023-12-14T01:58:00;5.80;91.60
79760;DHT22;70512;42.122;24.732;2023-12-14T02:00:34;5.70;91.60
79760;DHT22;70512;42.122;24.732;2023-12-14T02:02:58;5.50;91.80
79760;DHT22;70512;42.122;24.732;2023-12-14T02:05:28;5.30;92.20
79760;DHT22;70512;42.122;24.732;2023-12-14T02:07:55;5.10;92.60
79760;DHT22;70512;42.122;24.732;2023-12-14T02:10:23;5.20;92.70
79760;DHT22;70512;42.122;24.732;2023-12-14T02:12:50;5.30;92.50
79760;DHT22;70512;42.122;24.732;2023-12-14T02:15:17;5.30;92.30
79760;DHT22;70512;42.122;24.732;2023-12-14T02:17:44;5.40;92.30
79760;DHT22;70512;42.122;24.732;2023-12-14T02:20:11;5.40;92.20
79760;DHT22;70512;42.122;24.732;2023-12-14T02:22:58;5.50;91.90
79760;DHT22;70512;42.122;24.732;2023-12-14T02:25:22;5.50;91.40
79760;DHT22;70512;42.122;24.732;2023-12-14T02:27:49;5.60;91.40
79760;DHT22;70512;42.122;24.732;2023-12-14T02:30:17;5.60;91.30
79760;DHT22;70512;42.122;24.732;2023-12-14T02:32:44;5.60;91.20
79760;DHT22;70512;42.122;24.732;2023-12-14T02:35:11;5.60;91.20
79760;DHT22;70512;42.122;24.732;2023-12-14T02:37:38;5.60;91.10
79760;DHT22;70512;42.122;24.732;2023-12-14T02:40:08;5.60;91.10
79760;DHT22;70512;42.122;24.732;2023-12-14T02:42:35;5.60;91.10
79760;DHT22;70512;42.122;24.732;2023-12-14T02:45:03;5.70;91.00
79760;DHT22;70512;42.122;24.732;2023-12-14T02:47:30;5.60;91.00
79760;DHT22;70512;42.122;24.732;2023-12-14T02:49:56;5.60;91.00
79760;DHT22;70512;42.122;24.732;2023-12-14T02:52:23;5.60;91.00
79760;DHT22;70512;42.122;24.732;2023-12-14T02:54:50;5.50;91.20
79760;DHT22;70512;42.122;24.732;2023-12-14T02:57:17;5.40;91.60
79760;DHT22;70512;42.122;24.732;2023-12-14T02:59:44;5.30;91.70
79760;DHT22;70512;42.122;24.732;2023-12-14T03:02:11;5.10;92.40
79760;DHT22;70512;42.122;24.732;2023-12-14T03:04:38;5.10;92.10
79760;DHT22;70512;42.122;24.732;2023-12-14T03:07:09;5.20;91.90
79760;DHT22;70512;42.122;24.732;2023-12-14T03:09:38;5.20;91.90
79760;DHT22;70512;42.122;24.732;2023-12-14T03:12:04;5.20;91.90
79760;DHT22;70512;42.122;24.732;2023-12-14T03:14:31;5.20;91.70
79760;DHT22;70512;42.122;24.732;2023-12-14T03:16:59;5.30;91.60
79760;DHT22;70512;42.122;24.732;2023-12-14T03:19:26;5.20;91.70
79760;DHT22;70512;42.122;24.732;2023-12-14T03:21:53;5.30;91.60
79760;DHT22;70512;42.122;24.732;2023-12-14T03:24:20;5.30;91.50
79760;DHT22;70512;42.122;24.732;2023-12-14T03:26:47;5.30;91.60
79760;DHT22;70512;42.122;24.732;2023-12-14T03:29:14;5.30;91.50
79760;DHT22;70512;42.122;24.732;2023-12-14T03:31:40;5.30;91.40
79760;DHT22;70512;42.122;24.732;2023-12-14T03:34:07;5.30;91.20
79760;DHT22;70512;42.122;24.732;2023-12-14T03:36:34;5.20;91.50
79760;DHT22;70512;42.122;24.732;2023-12-14T03:39:01;5.10;91.40
79760;DHT22;70512;42.122;24.732;2023-12-14T03:41:28;5.20;91.50
79760;DHT22;70512;42.122;24.732;2023-12-14T03:43:55;5.00;91.90
79760;DHT22;70512;42.122;24.732;2023-12-14T03:46:22;4.90;92.30
79760;DHT22;70512;42.122;24.732;2023-12-14T03:48:49;4.90;92.50
79760;DHT22;70512;42.122;24.732;2023-12-14T03:51:19;5.00;92.30
79760;DHT22;70512;42.122;24.732;2023-12-14T03:53:46;5.00;92.10
79760;DHT22;70512;42.122;24.732;2023-12-14T03:56:13;5.10;92.10
79760;DHT22;70512;42.122;24.732;2023-12-14T03:58:40;5.00;92.00
79760;DHT22;70512;42.122;24.732;2023-12-14T04:01:07;5.10;92.10
79760;DHT22;70512;42.122;24.732;2023-12-14T04:03:33;5.20;91.90
79760;DHT22;70512;42.122;24.732;2023-12-14T04:06:00;5.30;91.90
79760;DHT22;70512;42.122;24.732;2023-12-14T04:08:27;5.20;91.80
79760;DHT22;70512;42.122;24.732;2023-12-14T04:10:54;5.20;91.90
79760;DHT22;70512;42.122;24.732;2023-12-14T04:13:24;5.30;91.80
79760;DHT22;70512;42.122;24.732;2023-12-14T04:15:49;5.30;91.60
79760;DHT22;70512;42.122;24.732;2023-12-14T04:18:16;5.30;91.60
79760;DHT22;70512;42.122;24.732;2023-12-14T04:20:43;5.40;91.50
79760;DHT22;70512;42.122;24.732;2023-12-14T04:23:10;5.40;91.50
79760;DHT22;70512;42.122;24.732;2023-12-14T04:25:37;5.30;91.40
79760;DHT22;70512;42.122;24.732;2023-12-14T04:28:05;5.30;91.40
79760;DHT22;70512;42.122;24.732;2023-12-14T04:30:32;5.30;91.40
79760;DHT22;70512;42.122;24.732;2023-12-14T04:32:59;5.30;91.40
79760;DHT22;70512;42.122;24.732;2023-12-14T04:35:28;5.30;91.30
79760;DHT22;70512;42.122;24.732;2023-12-14T04:37:59;5.30;91.30
79760;DHT22;70512;42.122;24.732;2023-12-14T04:40:23;5.30;91.20
79760;DHT22;70512;42.122;24.732;2023-12-14T04:42:54;5.30;91.60
79760;DHT22;70512;42.122;24.732;2023-12-14T04:45:19;5.20;91.40
79760;DHT22;70512;42.122;24.732;2023-12-14T04:47:46;5.10;91.60
79760;DHT22;70512;42.122;24.732;2023-12-14T04:50:13;5.10;91.50
79760;DHT22;70512;42.122;24.732;2023-12-14T04:52:41;5.00;91.60
79760;DHT22;70512;42.122;24.732;2023-12-14T04:55:08;4.90;91.90
79760;DHT22;70512;42.122;24.732;2023-12-14T04:57:35;4.90;91.90
79760;DHT22;70512;42.122;24.732;2023-12-14T05:00:03;5.00;91.90
79760;DHT22;70512;42.122;24.732;2023-12-14T05:02:31;5.00;91.90
79760;DHT22;70512;42.122;24.732;2023-12-14T05:04:58;5.10;91.70
79760;DHT22;70512;42.122;24.732;2023-12-14T05:07:25;5.10;91.70
79760;DHT22;70512;42.122;24.732;2023-12-14T05:09:54;5.10;91.60
79760;DHT22;70512;42.122;24.732;2023-12-14T05:12:27;5.00;92.20
79760;DHT22;70512;42.122;24.732;2023-12-14T05:14:54;4.80;92.20
79760;DHT22;70512;42.122;24.732;2023-12-14T05:17:24;4.70;92.40
79760;DHT22;70512;42.122;24.732;2023-12-14T05:19:51;4.70;92.50
79760;DHT22;70512;42.122;24.732;2023-12-14T05:22:18;4.80;92.40
79760;DHT22;70512;42.122;24.732;2023-12-14T05:24:46;4.90;92.30
79760;DHT22;70512;42.122;24.732;2023-12-14T05:27:13;4.90;92.10
79760;DHT22;70512;42.122;24.732;2023-12-14T05:29:40;4.70;92.20
79760;DHT22;70512;42.122;24.732;2023-12-14T05:32:12;4.40;92.80
79760;DHT22;70512;42.122;24.732;2023-12-14T05:34:35;4.00;93.80
79760;DHT22;70512;42.122;24.732;2023-12-14T05:37:04;3.90;94.30
79760;DHT22;70512;42.122;24.732;2023-12-14T05:39:39;3.90;94.40
79760;DHT22;70512;42.122;24.732;2023-12-14T05:42:02;4.00;94.30
79760;DHT22;70512;42.122;24.732;2023-12-14T05:44:29;4.00;94.10
79760;DHT22;70512;42.122;24.732;2023-12-14T05:46:56;3.90;94.20
79760;DHT22;70512;42.122;24.732;2023-12-14T05:49:22;3.90;94.60
79760;DHT22;70512;42.122;24.732;2023-12-14T05:51:49;3.80;94.70
79760;DHT22;70512;42.122;24.732;2023-12-14T05:54:16;3.80;94.90
79760;DHT22;70512;42.122;24.732;2023-12-14T05:56:45;3.80;94.80
79760;DHT22;70512;42.122;24.732;2023-12-14T05:59:13;3.90;94.50
79760;DHT22;70512;42.122;24.732;2023-12-14T06:01:40;4.00;94.10
79760;DHT22;70512;42.122;24.732;2023-12-14T06:04:09;4.00;94.40
79760;DHT22;70512;42.122;24.732;2023-12-14T06:06:37;4.00;94.40
79760;DHT22;70512;42.122;24.732;2023-12-14T06:09:04;4.10;94.40
79760;DHT22;70512;42.122;24.732;2023-12-14T06:11:33;4.20;94.40
79760;DHT22;70512;42.122;24.732;2023-12-14T06:14:01;4.30;94.40
79760;DHT22;70512;42.122;24.732;2023-12-14T06:16:28;4.40;94.10
79760;DHT22;70512;42.122;24.732;2023-12-14T06:18:55;4.20;94.50
79760;DHT22;70512;42.122;24.732;2023-12-14T06:21:22;4.20;94.60
79760;DHT22;70512;42.122;24.732;2023-12-14T06:23:50;4.30;94.60
79760;DHT22;70512;42.122;24.732;2023-12-14T06:26:17;4.20;94.80
79760;DHT22;70512;42.122;24.732;2023-12-14T06:28:44;4.20;94.90
79760;DHT22;70512;42.122;24.732;2023-12-14T06:31:14;4.40;94.70
79760;DHT22;70512;42.122;24.732;2023-12-14T06:33:41;4.50;94.50
79760;DHT22;70512;42.122;24.732;2023-12-14T06:36:08;4.60;94.20
79760;DHT22;70512;42.122;24.732;2023-12-14T06:38:40;4.70;93.90
79760;DHT22;70512;42.122;24.732;2023-12-14T06:41:18;4.90;93.50
79760;DHT22;70512;42.122;24.732;2023-12-14T06:43:37;5.00;93.10
79760;DHT22;70512;42.122;24.732;2023-12-14T06:46:06;5.10;92.70
79760;DHT22;70512;42.122;24.732;2023-12-14T06:48:32;5.20;92.60
79760;DHT22;70512;42.122;24.732;2023-12-14T06:51:01;5.30;92.40
79760;DHT22;70512;42.122;24.732;2023-12-14T06:53:28;5.30;92.20
79760;DHT22;70512;42.122;24.732;2023-12-14T06:55:56;5.40;92.10
79760;DHT22;70512;42.122;24.732;2023-12-14T06:58:22;5.40;92.00
79760;DHT22;70512;42.122;24.732;2023-12-14T07:00:49;5.50;92.00
79760;DHT22;70512;42.122;24.732;2023-12-14T07:03:16;5.50;92.10
79760;DHT22;70512;42.122;24.732;2023-12-14T07:05:43;5.60;91.80
79760;DHT22;70512;42.122;24.732;2023-12-14T07:08:10;5.60;91.90
79760;DHT22;70512;42.122;24.732;2023-12-14T07:10:42;5.70;91.40
79760;DHT22;70512;42.122;24.732;2023-12-14T07:13:05;5.90;91.10
79760;DHT22;70512;42.122;24.732;2023-12-14T07:15:32;6.00;90.70
79760;DHT22;70512;42.122;24.732;2023-12-14T07:17:59;6.10;90.60
79760;DHT22;70512;42.122;24.732;2023-12-14T07:20:26;6.20;90.40
79760;DHT22;70512;42.122;24.732;2023-12-14T07:22:53;6.30;90.00
79760;DHT22;70512;42.122;24.732;2023-12-14T07:25:19;6.40;89.60
79760;DHT22;70512;42.122;24.732;2023-12-14T07:27:46;6.50;89.20
79760;DHT22;70512;42.122;24.732;2023-12-14T07:30:13;6.70;89.00
79760;DHT22;70512;42.122;24.732;2023-12-14T07:32:40;6.80;88.40
79760;DHT22;70512;42.122;24.732;2023-12-14T07:35:09;6.90;87.70
79760;DHT22;70512;42.122;24.732;2023-12-14T07:37:36;7.00;87.00
79760;DHT22;70512;42.122;24.732;2023-12-14T07:40:03;7.00;86.40
79760;DHT22;70512;42.122;24.732;2023-12-14T07:42:30;7.10;86.30
79760;DHT22;70512;42.122;24.732;2023-12-14T07:44:57;7.10;86.20
79760;DHT22;70512;42.122;24.732;2023-12-14T07:47:25;7.10;86.00
79760;DHT22;70512;42.122;24.732;2023-12-14T07:49:52;7.20;86.10
79760;DHT22;70512;42.122;24.732;2023-12-14T07:52:19;7.20;85.60
79760;DHT22;70512;42.122;24.732;2023-12-14T07:54:46;7.30;85.30
79760;DHT22;70512;42.122;24.732;2023-12-14T07:57:13;7.30;84.90
79760;DHT22;70512;42.122;24.732;2023-12-14T07:59:40;7.40;84.70
79760;DHT22;70512;42.122;24.732;2023-12-14T08:02:07;7.40;84.70
79760;DHT22;70512;42.122;24.732;2023-12-14T08:04:33;7.40;84.90
79760;DHT22;70512;42.122;24.732;2023-12-14T08:07:00;7.50;84.80
79760;DHT22;70512;42.122;24.732;2023-12-14T08:09:27;7.60;84.20
79760;DHT22;70512;42.122;24.732;2023-12-14T08:11:54;7.60;83.90
79760;DHT22;70512;42.122;24.732;2023-12-14T08:14:21;7.80;83.70
79760;DHT22;70512;42.122;24.732;2023-12-14T08:16:48;8.00;82.80
79760;DHT22;70512;42.122;24.732;2023-12-14T08:19:15;8.10;82.90
79760;DHT22;70512;42.122;24.732;2023-12-14T08:21:42;8.20;82.00
79760;DHT22;70512;42.122;24.732;2023-12-14T08:24:09;8.20;81.40
79760;DHT22;70512;42.122;24.732;2023-12-14T08:26:36;8.20;81.00
79760;DHT22;70512;42.122;24.732;2023-12-14T08:29:03;8.30;81.10
79760;DHT22;70512;42.122;24.732;2023-12-14T08:31:30;8.40;81.50
79760;DHT22;70512;42.122;24.732;2023-12-14T08:33:56;8.50;80.10
79760;DHT22;70512;42.122;24.732;2023-12-14T08:36:23;8.50;80.00
79760;DHT22;70512;42.122;24.732;2023-12-14T08:38:50;8.60;79.80
79760;DHT22;70512;42.122;24.732;2023-12-14T08:41:17;8.60;79.40
79760;DHT22;70512;42.122;24.732;2023-12-14T08:43:44;8.70;79.20
79760;DHT22;70512;42.122;24.732;2023-12-14T08:46:11;8.80;78.90
79760;DHT22;70512;42.122;24.732;2023-12-14T08:48:38;8.90;78.70
79760;DHT22;70512;42.122;24.732;2023-12-14T08:51:05;9.00;78.10
79760;DHT22;70512;42.122;24.732;2023-12-14T08:53:32;9.00;77.90
79760;DHT22;70512;42.122;24.732;2023-12-14T08:55:59;9.20;77.60
79760;DHT22;70512;42.122;24.732;2023-12-14T08:58:26;9.30;77.10
79760;DHT22;70512;42.122;24.732;2023-12-14T09:00:53;9.40;76.50
79760;DHT22;70512;42.122;24.732;2023-12-14T09:03:20;9.50;76.60
79760;DHT22;70512;42.122;24.732;2023-12-14T09:05:47;9.50;75.60
79760;DHT22;70512;42.122;24.732;2023-12-14T09:08:14;9.60;75.90
79760;DHT22;70512;42.122;24.732;2023-12-14T09:10:41;9.80;76.10
79760;DHT22;70512;42.122;24.732;2023-12-14T09:13:08;9.90;74.60
79760;DHT22;70512;42.122;24.732;2023-12-14T09:15:35;10.10;74.10
79760;DHT22;70512;42.122;24.732;2023-12-14T09:18:02;10.10;74.10
79760;DHT22;70512;42.122;24.732;2023-12-14T09:20:29;10.20;73.30
79760;DHT22;70512;42.122;24.732;2023-12-14T09:22:58;9.90;74.70
79760;DHT22;70512;42.122;24.732;2023-12-14T09:25:29;9.90;75.70
79760;DHT22;70512;42.122;24.732;2023-12-14T09:27:56;10.20;75.30
79760;DHT22;70512;42.122;24.732;2023-12-14T09:30:23;10.40;74.40
79760;DHT22;70512;42.122;24.732;2023-12-14T09:32:50;10.60;73.20
79760;DHT22;70512;42.122;24.732;2023-12-14T09:35:17;10.80;72.30
79760;DHT22;70512;42.122;24.732;2023-12-14T09:37:44;10.80;71.50
79760;DHT22;70512;42.122;24.732;2023-12-14T09:40:11;10.90;71.40
79760;DHT22;70512;42.122;24.732;2023-12-14T09:42:38;11.00;70.70
79760;DHT22;70512;42.122;24.732;2023-12-14T09:45:06;11.10;70.10
79760;DHT22;70512;42.122;24.732;2023-12-14T09:47:34;11.10;69.90
79760;DHT22;70512;42.122;24.732;2023-12-14T09:50:01;11.20;70.60
79760;DHT22;70512;42.122;24.732;2023-12-14T09:52:30;11.30;69.30
79760;DHT22;70512;42.122;24.732;2023-12-14T09:54:59;11.40;69.20
79760;DHT22;70512;42.122;24.732;2023-12-14T09:57:26;11.40;68.50
79760;DHT22;70512;42.122;24.732;2023-12-14T09:59:53;11.50;68.80
79760;DHT22;70512;42.122;24.732;2023-12-14T10:02:22;11.60;68.60
79760;DHT22;70512;42.122;24.732;2023-12-14T10:04:49;11.80;68.10
79760;DHT22;70512;42.122;24.732;2023-12-14T10:07:16;11.80;67.10
79760;DHT22;70512;42.122;24.732;2023-12-14T10:09:43;11.80;67.30
79760;DHT22;70512;42.122;24.732;2023-12-14T10:12:10;11.90;67.10
79760;DHT22;70512;42.122;24.732;2023-12-14T10:14:37;12.20;66.70
79760;DHT22;70512;42.122;24.732;2023-12-14T10:19:43;12.30;66.10
79760;DHT22;70512;42.122;24.732;2023-12-14T10:22:11;12.30;65.90
79760;DHT22;70512;42.122;24.732;2023-12-14T10:24:38;12.60;65.00
79760;DHT22;70512;42.122;24.732;2023-12-14T10:27:06;12.80;64.60
79760;DHT22;70512;42.122;24.732;2023-12-14T10:29:33;13.00;63.20
79760;DHT22;70512;42.122;24.732;2023-12-14T10:32:06;12.90;63.50
79760;DHT22;70512;42.122;24.732;2023-12-14T10:34:30;12.90;63.90
79760;DHT22;70512;42.122;24.732;2023-12-14T10:36:56;13.00;63.40
79760;DHT22;70512;42.122;24.732;2023-12-14T10:39:24;13.00;62.70
79760;DHT22;70512;42.122;24.732;2023-12-14T10:41:53;12.90;64.10
79760;DHT22;70512;42.122;24.732;2023-12-14T10:44:22;13.30;63.20
79760;DHT22;70512;42.122;24.732;2023-12-14T10:46:50;13.60;61.60
79760;DHT22;70512;42.122;24.732;2023-12-14T10:49:18;13.90;60.70
79760;DHT22;70512;42.122;24.732;2023-12-14T10:51:46;14.00;59.70
79760;DHT22;70512;42.122;24.732;2023-12-14T10:54:14;14.20;59.50
79760;DHT22;70512;42.122;24.732;2023-12-14T10:56:42;14.40;59.00
79760;DHT22;70512;42.122;24.732;2023-12-14T10:59:09;14.60;58.20
79760;DHT22;70512;42.122;24.732;2023-12-14T11:01:36;14.40;58.00
79760;DHT22;70512;42.122;24.732;2023-12-14T11:04:05;14.20;58.60
79760;DHT22;70512;42.122;24.732;2023-12-14T11:06:33;14.20;58.90
79760;DHT22;70512;42.122;24.732;2023-12-14T11:09:04;14.10;59.30
79760;DHT22;70512;42.122;24.732;2023-12-14T11:11:37;14.10;59.80
79760;DHT22;70512;42.122;24.732;2023-12-14T11:13:59;14.00;59.90
79760;DHT22;70512;42.122;24.732;2023-12-14T11:16:26;13.80;60.60
79760;DHT22;70512;42.122;24.732;2023-12-14T11:21:40;13.60;62.10
79760;DHT22;70512;42.122;24.732;2023-12-14T11:24:06;13.60;62.40
79760;DHT22;70512;42.122;24.732;2023-12-14T11:26:33;13.60;62.60
79760;DHT22;70512;42.122;24.732;2023-12-14T11:29:00;13.60;62.30
79760;DHT22;70512;42.122;24.732;2023-12-14T11:31:28;13.60;62.50
79760;DHT22;70512;42.122;24.732;2023-12-14T11:33:56;13.60;62.80
79760;DHT22;70512;42.122;24.732;2023-12-14T11:36:23;13.70;62.00
79760;DHT22;70512;42.122;24.732;2023-12-14T11:38:49;13.90;61.20
79760;DHT22;70512;42.122;24.732;2023-12-14T11:41:16;14.00;61.20
79760;DHT22;70512;42.122;24.732;2023-12-14T11:43:45;13.90;61.50
79760;DHT22;70512;42.122;24.732;2023-12-14T11:46:15;13.90;61.40
79760;DHT22;70512;42.122;24.732;2023-12-14T11:48:47;13.90;61.50
79760;DHT22;70512;42.122;24.732;2023-12-14T11:51:10;13.90;62.00
79760;DHT22;70512;42.122;24.732;2023-12-14T11:53:37;13.90;61.70
79760;DHT22;70512;42.122;24.732;2023-12-14T11:56:06;13.90;61.90
79760;DHT22;70512;42.122;24.732;2023-12-14T11:58:33;13.80;61.90
79760;DHT22;70512;42.122;24.732;2023-12-14T12:01:13;13.60;62.80
79760;DHT22;70512;42.122;24.732;2023-12-14T12:03:40;13.50;63.20
79760;DHT22;70512;42.122;24.732;2023-12-14T12:06:07;13.60;63.30
79760;DHT22;70512;42.122;24.732;2023-12-14T12:08:40;13.60;63.30
79760;DHT22;70512;42.122;24.732;2023-12-14T12:11:03;13.70;63.30
79760;DHT22;70512;42.122;24.732;2023-12-14T12:13:30;13.80;63.30
79760;DHT22;70512;42.122;24.732;2023-12-14T12:15:58;13.90;62.90
79760;DHT22;70512;42.122;24.732;2023-12-14T12:18:25;14.00;63.00
79760;DHT22;70512;42.122;24.732;2023-12-14T12:20:53;14.10;62.50
79760;DHT22;70512;42.122;24.732;2023-12-14T12:23:20;14.00;62.00
79760;DHT22;70512;42.122;24.732;2023-12-14T12:25:48;13.80;62.50
79760;DHT22;70512;42.122;24.732;2023-12-14T12:28:15;13.80;62.90
79760;DHT22;70512;42.122;24.732;2023-12-14T12:30:42;13.80;63.10
79760;DHT22;70512;42.122;24.732;2023-12-14T12:33:09;13.70;62.90
79760;DHT22;70512;42.122;24.732;2023-12-14T12:35:41;13.60;63.10
79760;DHT22;70512;42.122;24.732;2023-12-14T12:38:04;13.60;63.40
79760;DHT22;70512;42.122;24.732;2023-12-14T12:40:31;13.60;63.70
79760;DHT22;70512;42.122;24.732;2023-12-14T12:42:59;13.50;63.90
79760;DHT22;70512;42.122;24.732;2023-12-14T12:45:26;13.50;64.20
79760;DHT22;70512;42.122;24.732;2023-12-14T12:47:53;13.40;64.90
79760;DHT22;70512;42.122;24.732;2023-12-14T12:50:20;13.30;64.60
79760;DHT22;70512;42.122;24.732;2023-12-14T12:52:47;13.30;64.70
79760;DHT22;70512;42.122;24.732;2023-12-14T12:55:21;13.30;64.70
79760;DHT22;70512;42.122;24.732;2023-12-14T12:57:46;13.30;64.60
79760;DHT22;70512;42.122;24.732;2023-12-14T13:00:14;13.40;64.70
79760;DHT22;70512;42.122;24.732;2023-12-14T13:02:41;13.30;64.60
79760;DHT22;70512;42.122;24.732;2023-12-14T13:05:09;13.40;64.60
79760;DHT22;70512;42.122;24.732;2023-12-14T13:07:36;13.20;64.70
79760;DHT22;70512;42.122;24.732;2023-12-14T13:10:04;13.10;65.50
79760;DHT22;70512;42.122;24.732;2023-12-14T13:12:33;13.10;65.90
79760;DHT22;70512;42.122;24.732;2023-12-14T13:15:00;13.00;65.90
79760;DHT22;70512;42.122;24.732;2023-12-14T13:17:27;13.00;66.20
79760;DHT22;70512;42.122;24.732;2023-12-14T13:19:54;13.00;66.30
79760;DHT22;70512;42.122;24.732;2023-12-14T13:22:21;13.00;66.40
79760;DHT22;70512;42.122;24.732;2023-12-14T13:24:48;12.90;66.50
79760;DHT22;70512;42.122;24.732;2023-12-14T13:27:15;12.80;66.70
79760;DHT22;70512;42.122;24.732;2023-12-14T13:29:42;12.80;67.00
79760;DHT22;70512;42.122;24.732;2023-12-14T13:32:11;12.80;67.30
79760;DHT22;70512;42.122;24.732;2023-12-14T13:34:38;12.80;68.10
79760;DHT22;70512;42.122;24.732;2023-12-14T13:37:05;12.80;68.00
79760;DHT22;70512;42.122;24.732;2023-12-14T13:39:33;12.80;67.70
79760;DHT22;70512;42.122;24.732;2023-12-14T13:42:02;12.80;67.60
79760;DHT22;70512;42.122;24.732;2023-12-14T13:44:29;12.70;67.90
79760;DHT22;70512;42.122;24.732;2023-12-14T13:46:58;12.60;68.10
79760;DHT22;70512;42.122;24.732;2023-12-14T13:49:25;12.60;68.50
79760;DHT22;70512;42.122;24.732;2023-12-14T13:51:52;12.50;68.80
79760;DHT22;70512;42.122;24.732;2023-12-14T13:54:18;12.50;69.10
79760;DHT22;70512;42.122;24.732;2023-12-14T13:56:45;12.50;69.30
79760;DHT22;70512;42.122;24.732;2023-12-14T13:59:15;12.50;69.60
79760;DHT22;70512;42.122;24.732;2023-12-14T14:01:42;12.40;69.60
79760;DHT22;70512;42.122;24.732;2023-12-14T14:04:09;12.40;69.90
79760;DHT22;70512;42.122;24.732;2023-12-14T14:06:36;12.30;70.30
79760;DHT22;70512;42.122;24.732;2023-12-14T14:09:03;12.20;70.60
79760;DHT22;70512;42.122;24.732;2023-12-14T14:11:31;12.20;70.60
79760;DHT22;70512;42.122;24.732;2023-12-14T14:13:58;12.20;70.60
79760;DHT22;70512;42.122;24.732;2023-12-14T14:16:25;12.10;70.80
79760;DHT22;70512;42.122;24.732;2023-12-14T14:18:55;12.10;71.10
79760;DHT22;70512;42.122;24.732;2023-12-14T14:21:22;11.90;71.50
79760;DHT22;70512;42.122;24.732;2023-12-14T14:23:49;11.90;72.10
79760;DHT22;70512;42.122;24.732;2023-12-14T14:26:16;11.80;72.30
79760;DHT22;70512;42.122;24.732;2023-12-14T14:28:43;11.80;73.30
79760;DHT22;70512;42.122;24.732;2023-12-14T14:31:10;11.70;72.90
79760;DHT22;70512;42.122;24.732;2023-12-14T14:33:37;11.70;73.20
79760;DHT22;70512;42.122;24.732;2023-12-14T14:36:04;11.70;73.60
79760;DHT22;70512;42.122;24.732;2023-12-14T14:38:31;11.60;74.00
79760;DHT22;70512;42.122;24.732;2023-12-14T14:40:58;11.50;74.00
79760;DHT22;70512;42.122;24.732;2023-12-14T14:43:25;11.50;74.40
79760;DHT22;70512;42.122;24.732;2023-12-14T14:45:54;11.40;74.80
79760;DHT22;70512;42.122;24.732;2023-12-14T14:48:21;11.30;75.10
79760;DHT22;70512;42.122;24.732;2023-12-14T14:50:48;11.30;75.30
79760;DHT22;70512;42.122;24.732;2023-12-14T14:53:14;11.20;75.70
79760;DHT22;70512;42.122;24.732;2023-12-14T14:55:41;11.10;76.20
79760;DHT22;70512;42.122;24.732;2023-12-14T14:58:08;11.10;76.50
79760;DHT22;70512;42.122;24.732;2023-12-14T15:00:35;11.10;76.70
79760;DHT22;70512;42.122;24.732;2023-12-14T15:03:04;11.00;76.80
79760;DHT22;70512;42.122;24.732;2023-12-14T15:05:33;11.00;77.10
79760;DHT22;70512;42.122;24.732;2023-12-14T15:08:00;10.90;77.30
79760;DHT22;70512;42.122;24.732;2023-12-14T15:10:28;10.90;77.80
79760;DHT22;70512;42.122;24.732;2023-12-14T15:12:57;10.80;78.10
79760;DHT22;70512;42.122;24.732;2023-12-14T15:15:24;10.80;78.30
79760;DHT22;70512;42.122;24.732;2023-12-14T15:17:51;10.70;78.50
79760;DHT22;70512;42.122;24.732;2023-12-14T15:20:18;10.70;78.70
79760;DHT22;70512;42.122;24.732;2023-12-14T15:22:45;10.70;79.30
79760;DHT22;70512;42.122;24.732;2023-12-14T15:25:12;10.60;79.60
79760;DHT22;70512;42.122;24.732;2023-12-14T15:27:41;10.60;79.70
79760;DHT22;70512;42.122;24.732;2023-12-14T15:30:08;10.50;80.20